Kezdőlap
METAR-TAF:

METAR-TAF

Repülőterek :

Algona, Iowa, Amerikai Egyesült Államok

földrajzi szélesség: 43-05N, földrajzi hosszúság: 094-16W, magasság: 372 m

Jelenlegi meteorológiai megfigyelések

A jelentés 22 perccel ezelõtt készült, 16:35 UTC
Déli szél 11 kt széllökések: 17 kt
Hőmérséklet 29°C
Páratartalom 84%
Légköri nyomás 1017 hPa
Látótávolság: 16.1 km
Kevés felhő 2000 lábon

METAR: KAXA 131635Z AUTO 18011G17KT 10SM FEW020 29/26 A3002 RMK A01

Idő: 11:57 (16:57 UTC)


TAF: hiányzik

Meteorológiai megfigyelések és előrejelzések több, mint 4000 repülőtéren (METAR és TAF jelentéseket).

A térképen piros és sárga pontok jelzik az elérhető meteorológiai állomásokat.

Mozgassa az egeret a pont fölött, hogy megjelenjen az állomás neve.

Azután kattintson az időjárási megfigyelések és előrejelzések megtekintéséhez.

A térkép megváltoztatása: kattintson a fekete keresztel jelölt zöld gombra ráközelítéshez, a vonallal jelölt zöld gombra távolításhoz, vagy a zöld nyilakra a szomszédos térképek eléréséhez.


METAR-TAF: